Time;durP1;ratioP1;P1;durP2;ratioP2;P2;SDS_P1;SDS_P2;PMS_P1;PMS_P2;Temp;Humidity;BMP_temperature;BMP_pressure;BME280_temperature;BME280_humidity;BME280_pressure;Samples;Min_cycle;Max_cycle;Signal;HPM_P1;HPM_P2
2024/01/07 00:19:26;;;;;;;9.00;5.30;;;;;;;-3.56;95.93;98165.08;435250;1251;108682;-40
2024/01/07 00:29:35;;;;;;;9.40;5.20;;;;;;;-3.56;96.06;98170.59;435169;1254;99121;-38
2024/01/07 00:49:49;;;;;;;7.60;4.80;;;;;;;-3.77;95.63;98180.73;434925;1251;635972;-39
2024/01/07 00:59:56;;;;;;;11.90;5.20;;;;;;;-3.76;95.83;98186.14;435312;1254;111958;-39
2024/01/07 01:10:04;;;;;;;14.60;8.10;;;;;;;-3.80;95.76;98186.36;435415;1251;108833;-39
2024/01/07 01:30:17;;;;;;;11.70;7.00;;;;;;;-3.84;95.62;98190.23;435457;1251;108921;-40
2024/01/07 01:40:25;;;;;;;8.60;4.90;;;;;;;-3.97;95.45;98195.29;435321;1251;97990;-39
2024/01/07 01:50:32;;;;;;;8.10;5.90;;;;;;;-3.99;95.19;98195.73;435326;1254;112695;-39
2024/01/07 02:00:40;;;;;;;10.70;6.20;;;;;;;-4.02;95.31;98191.80;435347;1251;106536;-40
2024/01/07 02:10:47;;;;;;;7.60;4.70;;;;;;;-4.11;95.08;98197.22;435274;1251;99118;-39
2024/01/07 02:20:54;;;;;;;9.70;5.40;;;;;;;-4.11;94.89;98204.90;435231;1252;109730;-39
2024/01/07 02:31:00;;;;;;;14.90;7.60;;;;;;;-4.11;95.35;98207.55;435295;1254;99245;-38
2024/01/07 02:41:17;;;;;;;7.90;5.30;;;;;;;-4.23;95.04;98211.38;435872;1251;110056;31
2024/01/07 02:51:24;;;;;;;9.80;5.80;;;;;;;-4.23;95.01;98216.64;435060;1255;108373;-42
2024/01/07 03:01:31;;;;;;;16.30;7.10;;;;;;;-4.38;94.87;98225.88;435132;1256;99139;-39
2024/01/07 03:11:40;;;;;;;12.40;6.70;;;;;;;-4.43;94.91;98225.49;435046;1255;111691;-39
2024/01/07 03:21:48;;;;;;;11.50;7.20;;;;;;;-4.50;94.67;98234.26;435194;1251;109118;-39
2024/01/07 03:31:56;;;;;;;10.90;6.00;;;;;;;-4.56;94.96;98230.40;435412;1251;99880;-39
2024/01/07 03:42:05;;;;;;;9.40;5.10;;;;;;;-4.56;94.53;98230.91;435054;1255;109699;-39
2024/01/07 03:52:11;;;;;;;12.40;6.40;;;;;;;-4.53;94.63;98232.69;435331;1251;98563;-39
2024/01/07 04:02:18;;;;;;;8.60;5.40;;;;;;;-4.66;94.55;98238.40;435135;1255;111892;-39
2024/01/07 04:12:26;;;;;;;6.20;4.50;;;;;;;-4.69;94.55;98246.52;435271;1254;106265;-39
2024/01/07 04:22:34;;;;;;;11.60;7.00;;;;;;;-4.72;94.63;98252.84;435419;1255;120486;-38
2024/01/07 04:32:41;;;;;;;11.40;5.60;;;;;;;-4.79;94.38;98265.72;435244;1255;108388;-40
2024/01/07 04:42:48;;;;;;;6.50;4.40;;;;;;;-4.72;94.44;98271.05;435183;1257;99246;-39
2024/01/07 04:52:56;;;;;;;9.50;6.90;;;;;;;-4.71;94.38;98275.29;435260;1255;110546;-39
2024/01/07 05:03:03;;;;;;;8.70;5.40;;;;;;;-4.85;94.22;98282.48;435185;1251;108062;-39
2024/01/07 05:13:11;;;;;;;9.20;5.20;;;;;;;-4.91;94.01;98286.14;435022;1255;99133;-39
2024/01/07 05:33:26;;;;;;;14.10;7.20;;;;;;;-4.96;94.29;98293.20;435320;1253;107690;-39
2024/01/07 05:43:33;;;;;;;6.70;4.90;;;;;;;-5.02;93.90;98300.50;435055;1255;99333;-38
2024/01/07 05:53:40;;;;;;;8.30;5.20;;;;;;;-4.98;93.86;98302.48;435179;1256;108203;-40
2024/01/07 06:03:48;;;;;;;9.50;5.60;;;;;;;-5.05;93.95;98313.59;435190;1255;99176;-40
2024/01/07 06:13:54;;;;;;;7.80;5.40;;;;;;;-5.07;93.83;98320.49;434970;1256;111056;-38
2024/01/07 06:24:01;;;;;;;10.30;5.30;;;;;;;-5.01;93.53;98329.59;434934;1255;107241;-40
2024/01/07 06:34:08;;;;;;;9.60;5.60;;;;;;;-5.12;93.34;98338.71;435199;1255;98831;-40
2024/01/07 06:44:16;;;;;;;6.80;4.70;;;;;;;-5.12;93.11;98349.41;435237;1255;111233;-40
2024/01/07 06:54:23;;;;;;;8.70;5.40;;;;;;;-5.19;92.65;98361.16;435144;1255;107316;-40
2024/01/07 07:04:30;;;;;;;7.60;5.10;;;;;;;-5.30;92.51;98370.41;435198;1252;98502;-39
2024/01/07 07:24:43;;;;;;;13.70;6.80;;;;;;;-5.30;92.35;98379.34;435248;1253;98268;-39
2024/01/07 07:34:50;;;;;;;9.40;5.60;;;;;;;-5.35;92.12;98387.32;435376;1256;110836;-41
2024/01/07 07:44:57;;;;;;;11.00;6.60;;;;;;;-5.18;92.21;98395.43;435224;1255;106532;-40
2024/01/07 07:55:06;;;;;;;12.90;7.90;;;;;;;-5.03;92.51;98402.02;435200;1255;99279;-39
2024/01/07 08:05:14;;;;;;;15.00;9.60;;;;;;;-5.12;92.22;98404.52;435260;1254;110674;-40
2024/01/07 08:15:19;;;;;;;18.00;9.60;;;;;;;-4.98;92.23;98413.22;435313;1255;107062;-40
2024/01/07 08:25:25;;;;;;;22.90;11.10;;;;;;;-4.98;92.23;98413.61;435302;1253;98797;-40
2024/01/07 08:35:31;;;;;;;15.30;8.90;;;;;;;-5.09;92.03;98414.03;435272;1253;112043;-38
2024/01/07 08:55:44;;;;;;;23.70;12.70;;;;;;;-4.99;91.75;98431.16;435225;1256;99237;-40
2024/01/07 09:05:51;;;;;;;17.10;8.10;;;;;;;-5.02;91.64;98443.33;435055;1255;107520;-39
2024/01/07 09:15:57;;;;;;;18.70;11.10;;;;;;;-4.85;91.57;98453.14;435260;1256;99234;-38
2024/01/07 09:26:03;;;;;;;22.70;10.50;;;;;;;-4.83;91.62;98460.06;435607;1257;112449;-40
2024/01/07 09:46:38;;;;;;;23.10;11.40;;;;;;;-4.64;91.21;98451.44;435740;1255;99271;-39
2024/01/07 09:56:51;;;;;;;25.40;12.80;;;;;;;-4.65;91.24;98446.90;435443;1253;107707;-40
2024/01/07 10:06:58;;;;;;;19.60;10.00;;;;;;;-4.65;91.07;98439.01;435180;1256;98015;-39
2024/01/07 10:27:23;;;;;;;29.00;16.70;;;;;;;-4.66;90.38;98438.04;435205;1255;107676;-38
2024/01/07 10:37:30;;;;;;;22.40;12.70;;;;;;;-4.50;90.14;98437.76;435065;1252;99122;-38
2024/01/07 10:47:41;;;;;;;24.10;15.00;;;;;;;-4.36;89.95;98441.34;435250;1256;106791;-39
2024/01/07 10:57:49;;;;;;;30.10;15.50;;;;;;;-4.43;89.42;98436.44;435216;1256;99255;-42
2024/01/07 11:07:58;;;;;;;;;;;;;;;-4.49;88.68;98429.28;435271;1251;111035;-40
2024/01/07 11:18:07;;;;;;;;;;;;;;;-4.32;88.85;98431.61;435137;1267;107609;-41
2024/01/07 11:28:14;;;;;;;30.60;16.60;;;;;;;-4.31;88.79;98439.17;435285;1257;98834;-39
2024/01/07 11:38:22;;;;;;;24.30;12.10;;;;;;;-4.56;87.14;98445.56;435139;1255;112049;-40
2024/01/07 11:48:29;;;;;;;28.70;16.40;;;;;;;-4.78;87.01;98454.03;435514;1256;109943;-41
2024/01/07 11:58:36;;;;;;;21.80;11.70;;;;;;;-4.90;86.94;98450.52;435309;1251;99218;-40
2024/01/07 12:29:10;;;;;;;27.80;14.40;;;;;;;-4.90;86.98;98457.26;435252;1257;112344;-39
2024/01/07 12:39:18;;;;;;;24.90;13.80;;;;;;;-4.79;87.02;98466.61;435235;1256;107624;-40
2024/01/07 12:59:30;;;;;;;28.10;15.80;;;;;;;-5.20;86.06;98483.09;435222;1265;108217;-39
2024/01/07 13:09:37;;;;;;;27.10;16.30;;;;;;;-5.22;86.41;98487.53;434986;1251;98960;-39
2024/01/07 13:50:04;;;;;;;34.00;18.90;;;;;;;-5.48;86.95;98533.84;435755;1255;107387;-38
2024/01/07 14:00:18;;;;;;;30.80;16.70;;;;;;;-5.63;86.76;98547.61;435435;1257;98857;-40
2024/01/07 14:10:26;;;;;;;26.30;16.60;;;;;;;-5.63;87.17;98556.16;435638;1257;111048;-40
2024/01/07 14:20:33;;;;;;;36.50;20.20;;;;;;;-5.75;87.05;98560.65;435301;1251;108515;-39
2024/01/07 14:30:39;;;;;;;29.50;16.90;;;;;;;-5.91;87.20;98575.90;435188;1257;98848;-39
2024/01/07 14:40:47;;;;;;;29.80;18.70;;;;;;;-5.99;86.94;98567.80;435174;1257;106773;-39
2024/01/07 14:50:54;;;;;;;38.60;22.70;;;;;;;-6.10;87.43;98580.94;435371;1251;98255;-40
2024/01/07 15:01:02;;;;;;;33.70;18.70;;;;;;;-6.11;87.39;98591.16;435319;1251;112588;-38
2024/01/07 15:21:17;;;;;;;25.50;14.70;;;;;;;-6.17;87.79;98610.64;435363;1251;99263;-39
2024/01/07 15:41:33;;;;;;;30.50;17.20;;;;;;;-6.17;88.01;98625.05;435187;1251;98670;-40
2024/01/07 15:51:40;;;;;;;27.30;17.20;;;;;;;-6.12;88.06;98625.70;434988;1255;110735;-39
2024/01/07 16:01:51;;;;;;;28.20;17.00;;;;;;;-6.17;88.16;98630.18;435662;1256;107790;-40
2024/01/07 16:11:59;;;;;;;26.70;16.30;;;;;;;-6.15;88.24;98637.10;435262;1251;99237;-39
2024/01/07 16:22:10;;;;;;;28.60;17.20;;;;;;;-6.20;88.40;98645.23;435537;1251;108342;-39
2024/01/07 16:42:26;;;;;;;30.30;17.90;;;;;;;-6.22;88.54;98669.39;435160;1255;113522;-39
2024/01/07 16:52:31;;;;;;;29.80;16.60;;;;;;;-6.36;88.49;98677.56;435324;1251;107831;-39
2024/01/07 17:02:38;;;;;;;28.10;17.30;;;;;;;-6.38;88.51;98689.56;435422;1251;97990;-39
2024/01/07 17:12:45;;;;;;;28.70;17.70;;;;;;;-6.51;88.60;98701.22;436048;1258;107363;-39
2024/01/07 17:32:57;;;;;;;27.50;16.30;;;;;;;-6.41;88.60;98717.07;436568;1251;112051;-39
2024/01/07 17:43:05;;;;;;;29.00;17.10;;;;;;;-6.50;88.63;98728.23;436696;1256;107665;-39
2024/01/07 17:53:14;;;;;;;31.80;17.30;;;;;;;-6.50;88.53;98733.02;436324;1252;99221;-39
2024/01/07 18:03:22;;;;;;;29.90;18.00;;;;;;;-6.57;88.63;98750.23;436625;1251;108013;-40
2024/01/07 18:13:30;;;;;;;32.10;17.70;;;;;;;-6.60;88.52;98761.60;437084;1255;99254;-39
2024/01/07 18:23:37;;;;;;;45.80;20.30;;;;;;;-6.61;88.57;98772.33;435569;1251;111530;-41
2024/01/07 18:33:45;;;;;;;39.50;18.20;;;;;;;-6.72;88.44;98781.77;436413;1258;108199;-39
2024/01/07 18:43:53;;;;;;;31.70;19.80;;;;;;;-6.78;88.55;98792.66;435830;1258;99336;-39
2024/01/07 18:54:00;;;;;;;34.50;17.80;;;;;;;-6.85;88.31;98800.54;435895;1255;107419;-39
2024/01/07 19:04:06;;;;;;;30.90;18.50;;;;;;;-6.91;88.26;98807.66;436347;1251;99325;-39
2024/01/07 19:14:13;;;;;;;30.00;18.70;;;;;;;-6.97;88.19;98821.10;437248;1255;111517;-40
2024/01/07 19:24:20;;;;;;;31.40;18.20;;;;;;;-7.00;88.19;98834.60;437100;1255;106909;-39
2024/01/07 19:44:31;;;;;;;36.10;20.30;;;;;;;-7.05;87.95;98833.95;437440;1251;108053;-39
2024/01/07 19:54:39;;;;;;;34.50;19.60;;;;;;;-7.04;88.06;98842.61;436413;1251;99230;-40
2024/01/07 20:04:47;;;;;;;35.70;20.70;;;;;;;-7.04;87.83;98853.69;435754;1251;110376;-40
2024/01/07 20:14:55;;;;;;;31.50;18.30;;;;;;;-7.05;87.77;98867.99;435267;1251;106477;-40
2024/01/07 20:25:05;;;;;;;30.90;18.50;;;;;;;-7.06;87.79;98889.51;435159;1255;99234;-40
2024/01/07 20:35:11;;;;;;;38.00;20.50;;;;;;;-7.04;87.90;98903.71;435403;1252;107888;-40
2024/01/07 20:45:20;;;;;;;27.60;17.40;;;;;;;-7.02;87.78;98911.64;435275;1256;99266;-39
2024/01/07 21:05:30;;;;;;;32.40;18.90;;;;;;;-7.25;87.42;98925.52;436123;1255;108325;-39
2024/01/07 21:25:45;;;;;;;32.30;18.70;;;;;;;-7.38;87.07;98932.23;435133;1255;107523;-40
2024/01/07 21:35:58;;;;;;;32.70;19.20;;;;;;;-7.45;87.11;98931.34;436094;1251;99285;-39
2024/01/07 21:56:14;;;;;;;29.30;17.20;;;;;;;-7.69;86.72;98939.60;435274;1255;108601;-40
2024/01/07 22:06:21;;;;;;;31.90;18.70;;;;;;;-7.70;86.82;98944.28;435206;1251;98821;-41
2024/01/07 22:16:29;;;;;;;29.40;19.40;;;;;;;-7.72;86.70;98948.17;436203;1255;107969;-40
2024/01/07 22:26:38;;;;;;;27.10;16.70;;;;;;;-7.75;86.72;98953.19;435215;1251;99285;-42
2024/01/07 22:36:45;;;;;;;28.80;17.20;;;;;;;-7.81;86.38;98966.05;436496;1251;111672;-40
2024/01/07 22:46:52;;;;;;;31.30;19.40;;;;;;;-7.88;86.20;98987.44;436675;1253;108506;-39
2024/01/07 22:56:59;;;;;;;29.60;18.20;;;;;;;-7.96;85.95;98994.52;435353;1255;99321;-40
2024/01/07 23:07:06;;;;;;;33.60;19.10;;;;;;;-8.14;85.62;98999.10;435238;1251;106888;-41
2024/01/07 23:17:14;;;;;;;25.90;16.10;;;;;;;-8.26;85.32;99006.31;435114;1255;99216;-41
2024/01/07 23:27:21;;;;;;;30.30;15.30;;;;;;;-8.36;85.15;99018.42;435230;1255;111243;-40
2024/01/07 23:37:27;;;;;;;30.80;17.40;;;;;;;-8.39;85.09;99026.49;435107;1256;107889;-42
2024/01/07 23:47:34;;;;;;;31.60;17.10;;;;;;;-8.48;85.16;99036.16;435127;1251;97996;-40
2024/01/07 23:57:44;;;;;;;34.90;18.70;;;;;;;-8.52;85.01;99053.00;435186;1255;108451;-41
